Time;durP1;ratioP1;P1;durP2;ratioP2;P2;SDS_P1;SDS_P2;PMS_P1;PMS_P2;Temp;Humidity;BMP_temperature;BMP_pressure;BME280_temperature;BME280_humidity;BME280_pressure;Samples;Min_cycle;Max_cycle;Signal;HPM_P1;HPM_P2
2023/12/21 00:01:59;;;;;;;1.57;0.40;;;5.70;99.90;;;;;;5070548;28;20660;-72
2023/12/21 00:04:25;;;;;;;1.53;0.40;;;5.80;99.90;;;;;;5069265;28;20183;-73
2023/12/21 00:06:51;;;;;;;1.23;0.53;;;5.70;99.90;;;;;;5068931;28;20214;-73
2023/12/21 00:09:17;;;;;;;1.53;0.50;;;5.80;99.90;;;;;;5070765;28;20426;-73
2023/12/21 00:11:42;;;;;;;1.53;0.37;;;5.80;99.90;;;;;;5069155;28;20249;-73
2023/12/21 00:14:08;;;;;;;3.20;0.60;;;5.80;99.90;;;;;;5070313;28;20191;-73
2023/12/21 00:16:33;;;;;;;3.03;0.50;;;5.80;99.90;;;;;;5051665;28;20579;-73
2023/12/21 00:19:00;;;;;;;0.80;0.30;;;5.90;99.90;;;;;;5068605;28;20260;-72
2023/12/21 00:21:25;;;;;;;1.67;0.47;;;5.90;99.90;;;;;;5070027;28;20190;-74
2023/12/21 00:23:51;;;;;;;0.90;0.40;;;5.90;99.90;;;;;;5070082;28;20439;-73
2023/12/21 00:26:16;;;;;;;1.23;0.40;;;5.90;99.90;;;;;;5069760;28;20218;-73
2023/12/21 00:28:42;;;;;;;0.70;0.40;;;5.90;99.90;;;;;;5069907;28;20190;-73
2023/12/21 00:31:08;;;;;;;0.70;0.40;;;5.80;99.90;;;;;;5068192;28;20268;-73
2023/12/21 00:33:34;;;;;;;2.53;1.47;;;5.80;99.90;;;;;;5068376;28;20868;-73
2023/12/21 00:36:00;;;;;;;0.70;0.40;;;5.80;99.90;;;;;;5069562;28;20957;-73
2023/12/21 00:38:26;;;;;;;1.00;0.30;;;5.80;99.90;;;;;;5068303;28;20514;-72
2023/12/21 00:40:52;;;;;;;0.70;0.40;;;5.80;99.90;;;;;;5068053;28;20186;-72
2023/12/21 00:43:18;;;;;;;1.00;0.40;;;5.80;99.90;;;;;;5068410;28;21233;-72
2023/12/21 00:45:44;;;;;;;0.70;0.40;;;5.80;99.90;;;;;;5067978;28;20434;-71
2023/12/21 00:48:09;;;;;;;0.90;0.43;;;5.80;99.90;;;;;;5051449;28;20548;-71
2023/12/21 00:50:35;;;;;;;0.60;0.30;;;5.70;99.90;;;;;;5069524;28;20186;-72
2023/12/21 00:53:01;;;;;;;3.17;0.53;;;5.70;99.90;;;;;;5067954;28;20771;-72
2023/12/21 00:55:26;;;;;;;0.80;0.40;;;5.70;99.90;;;;;;5069392;28;20637;-71
2023/12/21 00:57:52;;;;;;;1.20;0.50;;;5.70;99.90;;;;;;5069366;28;20213;-71
2023/12/21 01:00:18;;;;;;;0.70;0.40;;;5.60;99.90;;;;;;5067732;28;20270;-71
2023/12/21 01:02:43;;;;;;;2.20;0.60;;;5.70;99.90;;;;;;5069219;28;20573;-72
2023/12/21 01:05:09;;;;;;;1.83;0.40;;;5.60;99.90;;;;;;5069185;28;20421;-72
2023/12/21 01:07:35;;;;;;;0.80;0.40;;;5.60;99.90;;;;;;5069142;28;20229;-71
2023/12/21 01:10:00;;;;;;;0.70;0.30;;;5.60;99.90;;;;;;5069085;28;20183;-72
2023/12/21 01:12:31;;;;;;;0.70;0.37;;;5.70;99.90;;;;;;5067687;28;20574;-71
2023/12/21 01:14:58;;;;;;;0.80;0.40;;;5.70;99.90;;;;;;5067802;28;20176;-70
2023/12/21 01:17:24;;;;;;;0.70;0.30;;;5.70;99.90;;;;;;5069488;28;20440;-72
2023/12/21 01:19:50;;;;;;;0.60;0.30;;;5.80;99.90;;;;;;5067817;28;20847;-72
2023/12/21 01:22:15;;;;;;;1.00;0.40;;;5.80;99.90;;;;;;5067574;28;20422;-71
2023/12/21 01:24:41;;;;;;;0.67;0.40;;;5.80;99.90;;;;;;5069306;28;20278;-71
2023/12/21 01:27:06;;;;;;;0.60;0.30;;;5.80;99.90;;;;;;5068616;28;20222;-71
2023/12/21 01:29:32;;;;;;;0.60;0.30;;;5.70;99.90;;;;;;5068958;28;20187;-71
2023/12/21 01:31:58;;;;;;;0.80;0.40;;;5.70;99.90;;;;;;5067449;28;20208;-71
2023/12/21 01:34:23;;;;;;;1.03;0.50;;;5.80;99.90;;;;;;5050745;28;20560;-72
2023/12/21 01:36:49;;;;;;;1.33;0.40;;;5.80;99.90;;;;;;5068907;28;20207;-71
2023/12/21 01:39:15;;;;;;;2.17;0.40;;;5.80;99.90;;;;;;5067334;28;20197;-73
2023/12/21 01:41:40;;;;;;;1.17;0.40;;;5.80;99.90;;;;;;5068400;28;20649;-72
2023/12/21 01:44:06;;;;;;;0.70;0.40;;;5.80;99.90;;;;;;5068690;28;20183;-73
2023/12/21 01:46:33;;;;;;;1.57;0.60;;;5.90;99.90;;;;;;5068597;28;20214;-73
2023/12/21 01:49:00;;;;;;;1.80;0.40;;;5.80;99.90;;;;;;5068566;28;20610;-73
2023/12/21 01:51:26;;;;;;;1.43;0.40;;;5.90;99.90;;;;;;5068462;28;20478;-72
2023/12/21 01:53:53;;;;;;;0.70;0.50;;;5.90;99.90;;;;;;5067219;28;20413;-72
2023/12/21 01:56:20;;;;;;;5.63;0.40;;;5.80;99.90;;;;;;5067322;28;20517;-72
2023/12/21 01:58:50;;;;;;;1.90;0.40;;;5.90;99.90;;;;;;5068863;28;20424;-73
2023/12/21 02:01:19;;;;;;;1.47;0.50;;;5.90;99.90;;;;;;5070907;28;20413;-72
2023/12/21 02:03:44;;;;;;;1.60;0.50;;;5.90;99.90;;;;;;5069862;28;20424;-73
2023/12/21 02:06:10;;;;;;;1.20;0.40;;;5.90;99.90;;;;;;5069203;28;20436;-72
2023/12/21 02:08:36;;;;;;;0.90;0.40;;;5.90;99.90;;;;;;5069741;28;20197;-73
2023/12/21 02:11:07;;;;;;;3.23;0.50;;;5.90;99.90;;;;;;5069859;28;20401;-72
2023/12/21 02:13:33;;;;;;;1.20;0.40;;;5.90;99.90;;;;;;5067447;28;20475;-72
2023/12/21 02:16:12;;;;;;;0.60;0.30;;;5.90;99.90;;;;;;5068918;28;20432;-74
2023/12/21 02:18:38;;;;;;;0.70;0.40;;;5.90;99.90;;;;;;5068789;28;20183;-73
2023/12/21 02:21:04;;;;;;;0.90;0.30;;;5.90;99.90;;;;;;5069034;28;20417;-73
2023/12/21 02:23:36;;;;;;;1.10;0.30;;;6.00;99.90;;;;;;5068738;28;20413;-73
2023/12/21 02:26:01;;;;;;;0.60;0.30;;;6.00;99.90;;;;;;5069469;28;20456;-73
2023/12/21 02:28:27;;;;;;;0.70;0.30;;;6.00;99.90;;;;;;5069448;28;20481;-74
2023/12/21 02:30:52;;;;;;;1.13;0.30;;;6.00;99.90;;;;;;5071171;28;20178;-73
2023/12/21 02:33:18;;;;;;;0.60;0.30;;;6.00;99.90;;;;;;5069862;28;20292;-74
2023/12/21 02:35:44;;;;;;;1.67;0.30;;;6.10;99.90;;;;;;5070587;28;20679;-73
2023/12/21 02:38:09;;;;;;;0.60;0.30;;;6.10;99.90;;;;;;5067812;28;20187;-73
2023/12/21 02:40:35;;;;;;;0.73;0.40;;;6.10;99.90;;;;;;5067869;28;20205;-72
2023/12/21 02:43:00;;;;;;;0.60;0.30;;;6.10;99.90;;;;;;5068058;28;20182;-73
2023/12/21 02:45:26;;;;;;;0.60;0.30;;;6.10;99.90;;;;;;5069092;28;20184;-74
2023/12/21 02:47:52;;;;;;;0.70;0.30;;;6.20;99.90;;;;;;5068845;28;20261;-73
2023/12/21 02:50:17;;;;;;;0.60;0.40;;;6.20;99.90;;;;;;5068814;28;20209;-74
2023/12/21 02:52:43;;;;;;;1.73;0.70;;;6.20;99.90;;;;;;5068429;28;20241;-73
2023/12/21 02:55:09;;;;;;;0.60;0.30;;;6.20;99.90;;;;;;5072555;28;20816;-73
2023/12/21 02:57:34;;;;;;;1.20;0.40;;;6.20;99.90;;;;;;5071204;28;20211;-74
2023/12/21 03:00:00;;;;;;;0.90;0.30;;;6.30;99.90;;;;;;5072493;28;20290;-73
2023/12/21 03:02:25;;;;;;;0.60;0.40;;;6.30;99.90;;;;;;5054180;28;20191;-72
2023/12/21 03:04:51;;;;;;;0.60;0.30;;;6.30;99.90;;;;;;5071708;28;20194;-74
2023/12/21 03:07:17;;;;;;;0.73;0.30;;;6.30;99.90;;;;;;5071596;28;20207;-73
2023/12/21 03:09:42;;;;;;;0.60;0.30;;;6.30;99.90;;;;;;5070157;28;20278;-73
2023/12/21 03:12:08;;;;;;;0.60;0.30;;;6.30;99.90;;;;;;5071480;28;20286;-73
2023/12/21 03:14:34;;;;;;;0.80;0.30;;;6.40;99.90;;;;;;5071457;28;20171;-75
2023/12/21 03:16:59;;;;;;;1.90;0.30;;;6.40;99.90;;;;;;5071420;28;20777;-73
2023/12/21 03:19:25;;;;;;;0.70;0.30;;;6.40;99.90;;;;;;5071421;28;20183;-73
2023/12/21 03:21:50;;;;;;;0.60;0.30;;;6.40;99.90;;;;;;5071178;28;20232;-73
2023/12/21 03:24:16;;;;;;;1.00;0.30;;;6.50;99.90;;;;;;5071325;28;20259;-74
2023/12/21 03:26:43;;;;;;;0.60;0.30;;;6.50;99.90;;;;;;5071063;28;20226;-73
2023/12/21 03:29:08;;;;;;;0.60;0.30;;;6.50;99.90;;;;;;5053086;28;20586;-72
2023/12/21 03:31:34;;;;;;;3.03;0.33;;;6.50;99.90;;;;;;5053177;28;20584;-71
2023/12/21 03:34:00;;;;;;;0.70;0.30;;;6.50;99.90;;;;;;5071329;28;20566;-72
2023/12/21 03:36:27;;;;;;;0.60;0.30;;;6.50;99.90;;;;;;5071125;28;20301;-72
2023/12/21 03:38:52;;;;;;;0.60;0.33;;;6.60;99.90;;;;;;5069994;28;20695;-73
2023/12/21 03:41:18;;;;;;;0.60;0.30;;;6.60;99.90;;;;;;5070265;28;20504;-73
2023/12/21 03:43:43;;;;;;;0.60;0.30;;;6.70;99.90;;;;;;5071376;28;20183;-72
2023/12/21 03:46:09;;;;;;;0.90;0.40;;;6.70;99.90;;;;;;5069420;28;20234;-73
2023/12/21 03:48:35;;;;;;;0.60;0.30;;;6.70;99.90;;;;;;5069798;28;20183;-72
2023/12/21 03:51:01;;;;;;;0.60;0.30;;;6.70;99.90;;;;;;5070885;28;20883;-73
2023/12/21 03:53:26;;;;;;;0.67;0.30;;;6.70;99.90;;;;;;5070788;28;20755;-73
2023/12/21 03:55:52;;;;;;;0.60;0.30;;;6.60;99.90;;;;;;5069234;28;20768;-73
2023/12/21 03:58:18;;;;;;;0.60;0.30;;;6.70;99.90;;;;;;5070966;28;20176;-73
2023/12/21 04:00:43;;;;;;;0.97;0.30;;;6.70;99.90;;;;;;5070882;28;20176;-72
2023/12/21 04:03:09;;;;;;;1.63;0.70;;;6.70;99.90;;;;;;5070642;28;20191;-73
2023/12/21 04:05:36;;;;;;;0.60;0.30;;;6.70;99.90;;;;;;5070944;28;20186;-72
2023/12/21 04:08:02;;;;;;;0.60;0.30;;;6.70;99.90;;;;;;5071274;28;20273;-72
2023/12/21 04:10:27;;;;;;;0.60;0.30;;;6.70;99.90;;;;;;5069720;28;20513;-73
2023/12/21 04:12:53;;;;;;;0.80;0.40;;;6.70;99.90;;;;;;5052818;28;20203;-73
2023/12/21 04:15:19;;;;;;;0.60;0.30;;;6.70;99.90;;;;;;5069496;28;20645;-71
2023/12/21 04:17:44;;;;;;;0.60;0.30;;;6.70;99.90;;;;;;5069869;28;20203;-72
2023/12/21 04:20:10;;;;;;;0.60;0.30;;;6.70;99.90;;;;;;5071132;28;20547;-72
2023/12/21 04:22:36;;;;;;;0.60;0.30;;;6.70;99.90;;;;;;5071218;28;20244;-73
2023/12/21 04:25:01;;;;;;;0.80;0.30;;;6.70;99.90;;;;;;5069496;28;20421;-72
2023/12/21 04:27:28;;;;;;;0.63;0.30;;;6.70;99.90;;;;;;5070951;28;20217;-71
2023/12/21 04:29:54;;;;;;;0.77;0.37;;;6.70;99.90;;;;;;5070980;28;20266;-72
2023/12/21 04:32:20;;;;;;;0.60;0.30;;;6.60;99.90;;;;;;5070685;28;20618;-72
2023/12/21 04:34:45;;;;;;;0.60;0.30;;;6.70;99.90;;;;;;5070444;28;20192;-73
2023/12/21 04:37:12;;;;;;;0.60;0.30;;;6.60;99.90;;;;;;5069992;28;20203;-73
2023/12/21 04:39:38;;;;;;;0.60;0.30;;;6.60;99.90;;;;;;5068104;28;20202;-73
2023/12/21 04:42:04;;;;;;;0.83;0.30;;;6.60;99.90;;;;;;5069881;28;20802;-72
2023/12/21 04:44:29;;;;;;;1.93;0.30;;;6.60;99.90;;;;;;5068587;28;20191;-72
2023/12/21 04:46:55;;;;;;;0.80;0.30;;;6.60;99.90;;;;;;5068305;28;20437;-72
2023/12/21 04:49:22;;;;;;;0.60;0.30;;;6.60;99.90;;;;;;5071485;28;20212;-72
2023/12/21 04:51:48;;;;;;;0.60;0.30;;;6.60;99.90;;;;;;5069523;28;20270;-72
2023/12/21 04:54:14;;;;;;;0.60;0.30;;;6.60;99.90;;;;;;5069638;28;20413;-72
2023/12/21 04:56:42;;;;;;;0.60;0.30;;;6.60;99.90;;;;;;5069630;28;21095;-74
2023/12/21 04:59:08;;;;;;;0.60;0.30;;;6.60;99.90;;;;;;5069589;28;20175;-73
2023/12/21 05:01:34;;;;;;;0.60;0.30;;;6.70;99.90;;;;;;5069707;28;20445;-72
2023/12/21 05:04:03;;;;;;;0.60;0.30;;;6.70;99.90;;;;;;5069452;28;21144;-73
2023/12/21 05:06:29;;;;;;;0.90;0.30;;;6.80;99.90;;;;;;5069440;28;20202;-72
2023/12/21 05:08:56;;;;;;;0.90;0.30;;;6.70;99.90;;;;;;5067826;28;20421;-72
2023/12/21 05:11:22;;;;;;;0.60;0.30;;;6.70;99.90;;;;;;5069207;28;20642;-71
2023/12/21 05:13:48;;;;;;;0.60;0.30;;;6.70;99.90;;;;;;5069170;28;20494;-72
2023/12/21 05:16:13;;;;;;;0.60;0.30;;;6.70;99.90;;;;;;5068435;28;20867;-72
2023/12/21 05:18:39;;;;;;;0.60;0.30;;;6.70;99.90;;;;;;5050978;28;20239;-74
2023/12/21 05:21:09;;;;;;;0.60;0.30;;;6.70;99.90;;;;;;5067437;28;20210;-74
2023/12/21 05:23:34;;;;;;;0.60;0.30;;;6.70;99.90;;;;;;5069000;28;20514;-73
2023/12/21 05:26:00;;;;;;;0.60;0.30;;;6.80;99.90;;;;;;5067563;28;20472;-73
2023/12/21 05:28:26;;;;;;;0.60;0.30;;;6.80;99.90;;;;;;5067872;28;20665;-72
2023/12/21 05:30:52;;;;;;;0.60;0.30;;;6.80;99.90;;;;;;5067402;28;20183;-73
2023/12/21 05:33:17;;;;;;;0.70;0.50;;;6.80;99.90;;;;;;5067293;28;20211;-73
2023/12/21 05:35:43;;;;;;;0.60;0.30;;;6.90;99.90;;;;;;5067225;28;20231;-72
2023/12/21 05:38:08;;;;;;;0.60;0.30;;;6.90;99.90;;;;;;5067202;28;20564;-72
2023/12/21 05:40:34;;;;;;;0.60;0.30;;;6.90;99.90;;;;;;5068619;28;20179;-74
2023/12/21 05:43:00;;;;;;;0.60;0.30;;;6.90;99.90;;;;;;5067404;28;20217;-73
2023/12/21 05:45:25;;;;;;;0.60;0.30;;;6.90;99.90;;;;;;5069291;28;20190;-73
2023/12/21 05:47:51;;;;;;;0.60;0.30;;;6.90;99.90;;;;;;5067453;28;20619;-73
2023/12/21 05:50:17;;;;;;;0.60;0.30;;;6.90;99.90;;;;;;5068756;28;20289;-73
2023/12/21 05:52:42;;;;;;;0.60;0.30;;;7.00;99.90;;;;;;5067572;28;20676;-73
2023/12/21 05:55:14;;;;;;;0.60;0.30;;;6.90;99.90;;;;;;5068601;28;20186;-73
2023/12/21 05:57:40;;;;;;;0.60;0.30;;;7.00;99.90;;;;;;5068656;28;20252;-73
2023/12/21 06:00:06;;;;;;;0.60;0.30;;;7.00;99.90;;;;;;5067014;28;20433;-73
2023/12/21 06:02:32;;;;;;;2.03;0.30;;;7.00;99.90;;;;;;5067128;28;20436;-73
2023/12/21 06:04:57;;;;;;;0.60;0.30;;;7.00;99.90;;;;;;5068499;28;20417;-72
2023/12/21 06:07:23;;;;;;;0.73;0.30;;;7.00;99.90;;;;;;5068700;28;20203;-72
2023/12/21 06:09:50;;;;;;;0.60;0.30;;;7.00;99.90;;;;;;5050660;28;20956;-74
2023/12/21 06:12:15;;;;;;;0.60;0.40;;;7.00;99.90;;;;;;5068328;28;20273;-72
2023/12/21 06:14:42;;;;;;;0.60;0.30;;;7.00;99.90;;;;;;5068569;28;20424;-73
2023/12/21 06:17:07;;;;;;;0.60;0.30;;;7.00;99.90;;;;;;5068420;28;20196;-74
2023/12/21 06:19:33;;;;;;;0.60;0.30;;;7.00;99.90;;;;;;5067140;28;20440;-74
2023/12/21 06:21:59;;;;;;;0.70;0.40;;;7.00;99.90;;;;;;5066913;28;20190;-73
2023/12/21 06:24:25;;;;;;;0.60;0.30;;;7.00;99.90;;;;;;5068370;28;20740;-73
2023/12/21 06:26:50;;;;;;;0.80;0.40;;;7.00;99.90;;;;;;5068111;28;20229;-73
2023/12/21 06:29:16;;;;;;;1.43;0.30;;;7.00;99.90;;;;;;5072305;28;20179;-73
2023/12/21 06:31:41;;;;;;;0.70;0.40;;;7.00;99.90;;;;;;5071022;28;20685;-74
2023/12/21 06:34:07;;;;;;;0.60;0.30;;;7.10;99.90;;;;;;5071300;28;20286;-73
2023/12/21 06:36:33;;;;;;;0.60;0.30;;;7.10;99.90;;;;;;5071254;28;20203;-73
2023/12/21 06:38:58;;;;;;;0.60;0.40;;;7.10;99.90;;;;;;5069399;28;20183;-73
2023/12/21 06:41:24;;;;;;;0.70;0.30;;;7.10;99.90;;;;;;5070548;28;20649;-74
2023/12/21 06:43:50;;;;;;;0.60;0.30;;;7.20;99.90;;;;;;5071343;28;20658;-73
2023/12/21 06:46:15;;;;;;;0.70;0.30;;;7.10;99.90;;;;;;5070804;28;20203;-73
2023/12/21 06:48:44;;;;;;;0.60;0.30;;;7.10;99.90;;;;;;5070781;28;20183;-73
2023/12/21 06:51:11;;;;;;;0.60;0.40;;;7.10;99.90;;;;;;5070568;28;20184;-71
2023/12/21 06:53:36;;;;;;;0.60;0.30;;;7.10;99.90;;;;;;5068669;28;20465;-73
2023/12/21 06:56:02;;;;;;;0.60;0.30;;;7.10;99.90;;;;;;5070243;28;20805;-72
2023/12/21 06:58:27;;;;;;;0.70;0.40;;;7.10;99.90;;;;;;5070274;28;20179;-72
2023/12/21 07:00:54;;;;;;;0.60;0.30;;;7.10;99.90;;;;;;5069314;28;20218;-72
2023/12/21 07:03:22;;;;;;;0.60;0.30;;;7.20;99.90;;;;;;5070721;28;20235;-72
2023/12/21 07:05:52;;;;;;;1.77;0.30;;;7.10;99.90;;;;;;5070113;28;20524;-74
2023/12/21 07:08:18;;;;;;;0.60;0.30;;;7.20;99.90;;;;;;5070420;28;20914;-74
2023/12/21 07:10:44;;;;;;;0.60;0.30;;;7.20;99.90;;;;;;5070157;28;20431;-74
2023/12/21 07:13:11;;;;;;;0.80;0.30;;;7.20;99.90;;;;;;5070313;28;20468;-73
2023/12/21 07:15:36;;;;;;;0.63;0.40;;;7.30;99.90;;;;;;5070152;28;20187;-74
2023/12/21 07:18:02;;;;;;;2.70;1.40;;;7.30;99.90;;;;;;5068460;28;20422;-73
2023/12/21 07:20:30;;;;;;;0.60;0.30;;;7.30;99.90;;;;;;5070198;28;20243;-74
2023/12/21 07:22:56;;;;;;;0.70;0.30;;;7.30;99.90;;;;;;5068496;28;20429;-74
2023/12/21 07:25:22;;;;;;;0.60;0.30;;;7.40;99.90;;;;;;5051408;28;20452;-74
2023/12/21 07:27:48;;;;;;;0.90;0.40;;;7.40;99.90;;;;;;5069814;28;20284;-73
2023/12/21 07:30:14;;;;;;;0.60;0.30;;;7.40;99.90;;;;;;5051743;28;21071;-72
2023/12/21 07:32:39;;;;;;;0.70;0.30;;;7.40;99.90;;;;;;5069861;28;20497;-73
2023/12/21 07:35:06;;;;;;;0.70;0.40;;;7.50;99.90;;;;;;5069700;28;20506;-73
2023/12/21 07:37:31;;;;;;;0.60;0.40;;;7.50;99.90;;;;;;5069658;28;20584;-73
2023/12/21 07:39:57;;;;;;;0.60;0.30;;;7.50;99.90;;;;;;5069335;28;20418;-74
2023/12/21 07:42:22;;;;;;;0.70;0.30;;;7.60;99.90;;;;;;5069504;28;20190;-74
2023/12/21 07:44:48;;;;;;;0.67;0.33;;;7.60;99.90;;;;;;5069771;28;20188;-74
2023/12/21 07:47:14;;;;;;;0.60;0.30;;;7.60;99.90;;;;;;5069398;28;20215;-73
2023/12/21 07:49:39;;;;;;;0.60;0.30;;;7.60;99.90;;;;;;5071768;28;20198;-73
2023/12/21 07:52:05;;;;;;;0.60;0.30;;;7.60;99.90;;;;;;5072967;28;20215;-73
2023/12/21 07:54:31;;;;;;;0.60;0.30;;;7.60;99.90;;;;;;5072081;28;20628;-74
2023/12/21 07:56:56;;;;;;;1.20;0.40;;;7.70;99.90;;;;;;5068197;28;20452;-74
2023/12/21 07:59:24;;;;;;;0.70;0.30;;;7.70;99.90;;;;;;5068252;28;20195;-73
2023/12/21 08:01:49;;;;;;;0.60;0.30;;;7.70;99.90;;;;;;5069270;28;20187;-74
2023/12/21 08:04:16;;;;;;;0.90;0.37;;;7.80;99.90;;;;;;5069627;28;20428;-74
2023/12/21 08:06:41;;;;;;;0.60;0.30;;;7.70;99.90;;;;;;5069404;28;20213;-74
2023/12/21 08:09:07;;;;;;;0.60;0.30;;;7.70;99.90;;;;;;5069338;28;20986;-73
2023/12/21 08:11:33;;;;;;;0.90;0.30;;;7.70;99.90;;;;;;5067342;28;20206;-74
2023/12/21 08:13:58;;;;;;;0.60;0.30;;;7.80;99.90;;;;;;5067282;28;20187;-73
2023/12/21 08:16:24;;;;;;;1.00;0.67;;;7.80;99.90;;;;;;5068833;28;20206;-73
2023/12/21 08:18:50;;;;;;;0.60;0.30;;;7.80;99.90;;;;;;5067143;28;20191;-75
2023/12/21 08:21:15;;;;;;;0.60;0.40;;;7.80;99.90;;;;;;5068574;28;20249;-73
2023/12/21 08:23:41;;;;;;;0.80;0.33;;;7.80;99.90;;;;;;5068717;28;20187;-73
2023/12/21 08:26:08;;;;;;;0.60;0.30;;;7.80;99.90;;;;;;5066979;28;20238;-73
2023/12/21 08:28:34;;;;;;;0.60;0.30;;;7.80;99.90;;;;;;5068919;28;20464;-74
2023/12/21 08:31:00;;;;;;;0.60;0.30;;;7.80;99.90;;;;;;5068752;28;20504;-74
2023/12/21 08:33:26;;;;;;;0.60;0.40;;;7.80;99.90;;;;;;5067058;28;20227;-73
2023/12/21 08:35:52;;;;;;;0.60;0.40;;;7.80;99.90;;;;;;5066909;28;20425;-73
2023/12/21 08:38:17;;;;;;;0.70;0.30;;;7.80;99.90;;;;;;5068718;28;20211;-73
2023/12/21 08:40:43;;;;;;;0.70;0.40;;;7.80;99.90;;;;;;5066630;28;20463;-74
2023/12/21 08:43:09;;;;;;;0.70;0.40;;;7.80;99.90;;;;;;5068544;28;20535;-73
2023/12/21 08:45:35;;;;;;;0.70;0.40;;;7.80;99.90;;;;;;5066720;28;20438;-73
2023/12/21 08:48:00;;;;;;;0.77;0.30;;;7.80;99.90;;;;;;5068262;28;20194;-73
2023/12/21 08:50:26;;;;;;;1.63;0.40;;;7.80;99.90;;;;;;5066917;28;20266;-74
2023/12/21 08:52:51;;;;;;;0.80;0.40;;;7.80;99.90;;;;;;5068119;28;20208;-73
2023/12/21 08:55:17;;;;;;;2.30;0.40;;;7.90;99.90;;;;;;5066355;28;20614;-72
2023/12/21 08:57:42;;;;;;;0.70;0.40;;;7.90;99.90;;;;;;5067781;28;20223;-72
2023/12/21 09:00:12;;;;;;;0.70;0.40;;;7.90;99.90;;;;;;5068135;28;20644;-73
2023/12/21 09:02:38;;;;;;;0.60;0.37;;;7.90;99.90;;;;;;5068180;28;20211;-73
2023/12/21 09:05:05;;;;;;;0.80;0.63;;;7.90;99.90;;;;;;5066645;28;20939;-73
2023/12/21 09:07:31;;;;;;;0.70;0.30;;;7.90;99.90;;;;;;5067423;28;20572;-74
2023/12/21 09:09:56;;;;;;;0.60;0.40;;;7.90;99.90;;;;;;5066178;28;20433;-74
2023/12/21 09:12:22;;;;;;;1.10;1.00;;;7.90;99.90;;;;;;5065829;28;20579;-73
2023/12/21 09:14:48;;;;;;;0.63;0.37;;;7.90;99.90;;;;;;5049402;28;20195;-73
2023/12/21 09:17:14;;;;;;;1.07;0.50;;;8.00;99.90;;;;;;5065884;28;20595;-73
2023/12/21 09:19:41;;;;;;;0.70;0.50;;;7.90;99.90;;;;;;5067469;28;20176;-74
2023/12/21 09:22:06;;;;;;;2.23;1.70;;;8.00;99.90;;;;;;5065669;28;20413;-74
2023/12/21 09:24:32;;;;;;;4.23;2.83;;;8.00;99.90;;;;;;5067018;28;20467;-74
2023/12/21 09:26:58;;;;;;;1.20;0.90;;;7.90;99.90;;;;;;5065791;28;20219;-75
2023/12/21 09:29:23;;;;;;;1.73;1.63;;;8.10;99.90;;;;;;5049189;28;20217;-73
2023/12/21 09:31:49;;;;;;;4.50;2.50;;;8.00;99.90;;;;;;5048983;28;20183;-73
2023/12/21 09:34:15;;;;;;;13.53;8.53;;;7.80;99.90;;;;;;5067560;28;20191;-72
2023/12/21 09:36:41;;;;;;;0.80;0.53;;;7.90;99.90;;;;;;5065284;28;20245;-72
2023/12/21 09:39:07;;;;;;;0.80;0.50;;;7.90;99.90;;;;;;5065789;28;20426;-74
2023/12/21 09:41:33;;;;;;;2.27;1.33;;;7.90;99.90;;;;;;5067087;28;20178;-74
2023/12/21 09:44:01;;;;;;;3.27;0.40;;;7.90;99.90;;;;;;5066865;28;20489;-73
2023/12/21 09:46:28;;;;;;;0.70;0.30;;;7.90;99.90;;;;;;5065496;28;20452;-73
2023/12/21 09:48:54;;;;;;;0.67;0.40;;;7.90;99.90;;;;;;5066855;28;20428;-73
2023/12/21 09:51:21;;;;;;;6.87;5.53;;;7.90;99.90;;;;;;5065372;28;20485;-73
2023/12/21 09:53:47;;;;;;;1.40;1.00;;;7.90;99.90;;;;;;5066963;28;20496;-73
2023/12/21 09:56:14;;;;;;;2.77;2.57;;;7.90;99.90;;;;;;5065755;28;20441;-72
2023/12/21 09:58:41;;;;;;;2.50;2.30;;;8.00;99.90;;;;;;5067115;28;20942;-74
2023/12/21 10:01:07;;;;;;;2.57;2.10;;;7.90;99.90;;;;;;5066600;28;20417;-74
2023/12/21 10:03:33;;;;;;;2.60;2.40;;;7.90;99.90;;;;;;5065324;28;20526;-74
2023/12/21 10:06:00;;;;;;;1.57;0.90;;;7.90;99.90;;;;;;5066731;28;20491;-73
2023/12/21 10:08:25;;;;;;;0.70;0.40;;;7.90;99.90;;;;;;5067196;28;20489;-73
2023/12/21 10:10:51;;;;;;;0.60;0.40;;;7.90;99.90;;;;;;5067002;28;20508;-72
2023/12/21 10:13:17;;;;;;;0.70;0.30;;;8.00;99.90;;;;;;5066714;28;20685;-73
2023/12/21 10:15:42;;;;;;;0.70;0.40;;;8.00;99.90;;;;;;5065362;28;20267;-73
2023/12/21 10:18:09;;;;;;;0.67;0.40;;;8.00;99.90;;;;;;5067144;28;20420;-73
2023/12/21 10:20:35;;;;;;;0.70;0.40;;;8.00;99.90;;;;;;5048623;28;20187;-73
2023/12/21 10:23:01;;;;;;;0.90;0.60;;;8.10;99.90;;;;;;5066719;28;20419;-72
2023/12/21 10:25:26;;;;;;;0.60;0.40;;;8.10;99.90;;;;;;5066430;28;20810;-73
2023/12/21 10:27:53;;;;;;;0.73;0.50;;;8.10;99.90;;;;;;5066643;28;20216;-73
2023/12/21 10:30:23;;;;;;;0.70;0.43;;;8.10;99.90;;;;;;5065246;28;20238;-73
2023/12/21 10:32:55;;;;;;;0.80;0.40;;;8.10;99.90;;;;;;5066742;28;20453;-74
2023/12/21 10:35:22;;;;;;;0.90;0.60;;;8.10;99.90;;;;;;5067212;28;20941;-75
2023/12/21 10:37:48;;;;;;;0.60;0.30;;;8.10;99.90;;;;;;5067164;28;20437;-74
2023/12/21 10:40:14;;;;;;;0.70;0.40;;;8.10;99.90;;;;;;5065893;28;20874;-74
2023/12/21 10:42:50;;;;;;;0.60;0.30;;;8.10;99.90;;;;;;5065752;28;20856;-74
2023/12/21 10:45:16;;;;;;;0.70;0.40;;;8.10;99.90;;;;;;5067491;28;20445;-74
2023/12/21 10:48:06;;;;;;;1.03;0.40;;;8.10;99.90;;;;;;5067483;28;20524;-74
2023/12/21 10:50:33;;;;;;;0.70;0.40;;;8.20;99.90;;;;;;5066899;28;20894;-73
2023/12/21 10:52:59;;;;;;;1.10;0.40;;;8.10;99.90;;;;;;5065415;28;20476;-73
2023/12/21 10:55:25;;;;;;;1.17;0.73;;;8.00;99.90;;;;;;5067178;28;20889;-73
2023/12/21 10:57:53;;;;;;;0.70;0.40;;;8.10;99.90;;;;;;5067031;28;20438;-74
2023/12/21 11:00:21;;;;;;;0.60;0.30;;;8.10;99.90;;;;;;5067078;28;21016;-75
2023/12/21 11:02:48;;;;;;;0.80;0.50;;;8.10;99.90;;;;;;5068823;28;20417;-73
2023/12/21 11:05:20;;;;;;;0.70;0.50;;;8.20;99.90;;;;;;5066800;28;20422;-72
2023/12/21 11:07:51;;;;;;;0.70;0.40;;;8.20;99.90;;;;;;5067529;28;20516;-74
2023/12/21 11:10:18;;;;;;;1.47;0.50;;;8.20;99.90;;;;;;5066987;28;20445;-72
2023/12/21 11:12:44;;;;;;;0.93;0.40;;;8.20;99.90;;;;;;5065766;28;20466;-75
2023/12/21 11:15:14;;;;;;;0.90;0.40;;;8.30;99.90;;;;;;5070108;28;20852;-73
2023/12/21 11:17:43;;;;;;;0.60;0.30;;;8.20;99.90;;;;;;5070409;28;20438;-74
2023/12/21 11:20:12;;;;;;;0.70;0.40;;;8.20;99.90;;;;;;5069371;28;20985;-73
2023/12/21 11:22:38;;;;;;;0.70;0.30;;;8.20;99.90;;;;;;5070916;28;20512;-74
2023/12/21 11:25:06;;;;;;;0.80;0.40;;;8.20;99.90;;;;;;5070800;28;20429;-73
2023/12/21 11:27:33;;;;;;;0.87;0.30;;;8.30;99.90;;;;;;5070978;28;20522;-73
2023/12/21 11:30:12;;;;;;;1.17;0.40;;;8.30;99.90;;;;;;5069438;28;20520;-74
2023/12/21 11:32:42;;;;;;;0.70;0.40;;;8.30;99.90;;;;;;5070611;28;20473;-74
2023/12/21 11:35:21;;;;;;;0.70;0.40;;;8.30;99.90;;;;;;5070998;28;20831;-74
2023/12/21 11:37:52;;;;;;;0.90;0.50;;;8.40;99.90;;;;;;5070610;28;20490;-74
2023/12/21 11:40:20;;;;;;;1.27;0.40;;;8.40;99.90;;;;;;5071114;28;20410;-75
2023/12/21 11:42:47;;;;;;;0.70;0.40;;;8.40;99.90;;;;;;5070890;28;20425;-73
2023/12/21 11:45:25;;;;;;;0.70;0.40;;;8.40;99.90;;;;;;5070945;28;20426;-73
2023/12/21 11:47:56;;;;;;;0.60;0.30;;;8.40;99.90;;;;;;5070660;28;20516;-73
2023/12/21 11:50:26;;;;;;;0.60;0.30;;;8.40;99.90;;;;;;5069149;28;20914;-73
2023/12/21 11:53:05;;;;;;;0.60;0.30;;;8.40;99.90;;;;;;5068694;28;20550;-74
2023/12/21 11:55:39;;;;;;;0.70;0.40;;;8.50;99.90;;;;;;5070473;28;20471;-74
2023/12/21 11:58:22;;;;;;;1.00;0.40;;;8.50;99.90;;;;;;5070474;28;20826;-72
2023/12/21 12:00:55;;;;;;;0.70;0.50;;;8.50;99.90;;;;;;5070342;28;20449;-73
2023/12/21 12:03:23;;;;;;;2.60;0.47;;;8.50;99.90;;;;;;5070621;28;20819;-73
2023/12/21 12:05:52;;;;;;;0.70;0.40;;;8.50;99.90;;;;;;5070831;28;20927;-74
2023/12/21 12:08:22;;;;;;;0.80;0.50;;;8.50;99.90;;;;;;5070370;28;20436;-73
2023/12/21 12:10:52;;;;;;;0.70;0.40;;;8.50;99.90;;;;;;5070253;28;20444;-73
2023/12/21 12:13:19;;;;;;;0.60;0.30;;;8.50;99.90;;;;;;5068885;28;20465;-75
2023/12/21 12:15:48;;;;;;;1.87;0.40;;;8.60;99.90;;;;;;5069952;28;20405;-74
2023/12/21 12:18:15;;;;;;;1.17;0.30;;;8.60;99.90;;;;;;5068461;28;20425;-74
2023/12/21 12:20:44;;;;;;;0.60;0.30;;;8.60;99.90;;;;;;5069784;28;20495;-74
2023/12/21 12:23:11;;;;;;;0.73;0.40;;;8.60;99.90;;;;;;5069182;28;20532;-73
2023/12/21 12:25:36;;;;;;;0.87;0.40;;;8.60;99.90;;;;;;5067858;28;21262;-74
2023/12/21 12:28:05;;;;;;;1.00;0.40;;;8.60;99.90;;;;;;5069419;28;20421;-73
2023/12/21 12:30:31;;;;;;;0.60;0.40;;;8.60;99.90;;;;;;5069158;28;20309;-72
2023/12/21 12:33:02;;;;;;;0.80;0.40;;;8.60;99.90;;;;;;5068940;28;20496;-73
2023/12/21 12:35:30;;;;;;;0.93;0.50;;;8.70;99.90;;;;;;5069621;28;20405;-73
2023/12/21 12:37:56;;;;;;;1.00;0.90;;;8.70;99.90;;;;;;5068124;28;20464;-72
2023/12/21 12:40:23;;;;;;;0.80;0.40;;;8.70;99.90;;;;;;5068082;28;21024;-73
2023/12/21 12:42:49;;;;;;;0.67;0.37;;;8.70;99.90;;;;;;5069319;28;20183;-74
2023/12/21 12:45:16;;;;;;;0.90;0.40;;;8.70;99.90;;;;;;5068665;28;20558;-74
2023/12/21 12:47:42;;;;;;;0.70;0.37;;;8.70;99.90;;;;;;5068603;28;20440;-74
2023/12/21 12:50:11;;;;;;;0.60;0.30;;;8.70;99.90;;;;;;5069454;28;20820;-73
2023/12/21 12:52:41;;;;;;;2.20;0.80;;;8.80;99.90;;;;;;5066919;28;20473;-74
2023/12/21 12:55:11;;;;;;;10.77;3.00;;;8.80;99.90;;;;;;5068946;28;20821;-73